createdAt,value
2023-01-20T00:01:09.545Z,6.90
2023-01-20T00:03:37.752Z,6.38
2023-01-20T00:06:05.866Z,6.65
2023-01-20T00:08:33.774Z,6.68
2023-01-20T00:11:06.936Z,7.00
2023-01-20T00:13:34.844Z,6.97
2023-01-20T00:16:03.906Z,6.93
2023-01-20T00:18:32.080Z,6.80
2023-01-20T00:21:04.254Z,6.55
2023-01-20T00:23:32.422Z,6.82
2023-01-20T00:26:00.558Z,6.55
2023-01-20T00:28:29.738Z,6.20
2023-01-20T00:30:57.679Z,6.50
2023-01-20T00:33:25.615Z,6.40
2023-01-20T00:35:53.430Z,6.72
2023-01-20T00:38:21.651Z,6.32
2023-01-20T00:40:55.070Z,6.80
2023-01-20T00:43:22.965Z,6.88
2023-01-20T00:45:52.222Z,8.40
2023-01-20T00:48:20.311Z,6.97
2023-01-20T00:50:48.169Z,6.20
2023-01-20T00:53:16.051Z,6.70
2023-01-20T00:55:43.999Z,6.93
2023-01-20T00:58:11.847Z,7.18
2023-01-20T01:00:39.716Z,7.10
2023-01-20T01:03:10.225Z,6.82
2023-01-20T01:05:38.599Z,6.20
2023-01-20T01:08:06.507Z,7.43
2023-01-20T01:10:34.362Z,6.50
2023-01-20T01:13:02.644Z,6.47
2023-01-20T01:15:30.748Z,7.10
2023-01-20T01:17:59.807Z,6.55
2023-01-20T01:20:29.927Z,7.00
2023-01-20T01:22:57.870Z,7.18
2023-01-20T01:25:25.868Z,6.53
2023-01-20T01:27:53.806Z,6.30
2023-01-20T01:30:21.866Z,6.60
2023-01-20T01:32:49.732Z,6.30
2023-01-20T01:35:17.623Z,6.88
2023-01-20T01:37:46.798Z,6.63
2023-01-20T01:40:14.722Z,6.57
2023-01-20T01:42:43.019Z,6.18
2023-01-20T01:45:25.935Z,6.15
2023-01-20T01:48:04.391Z,6.35
2023-01-20T01:50:38.911Z,6.95
2023-01-20T01:53:09.182Z,7.13
2023-01-20T01:55:40.642Z,6.35
2023-01-20T01:58:12.664Z,7.43
2023-01-20T02:00:41.025Z,6.93
2023-01-20T02:03:09.437Z,6.55
2023-01-20T02:05:38.344Z,6.63
2023-01-20T02:08:08.238Z,6.60
2023-01-20T02:10:36.224Z,6.70
2023-01-20T02:13:05.136Z,6.18
2023-01-20T02:15:40.622Z,6.40
2023-01-20T02:18:26.442Z,6.90
2023-01-20T02:21:36.741Z,6.68
2023-01-20T02:24:26.122Z,6.10
2023-01-20T02:27:03.304Z,6.32
2023-01-20T02:30:03.489Z,6.57
2023-01-20T02:32:44.753Z,6.65
2023-01-20T02:35:19.379Z,6.47
2023-01-20T02:37:51.170Z,6.63
2023-01-20T02:40:28.454Z,6.75
2023-01-20T02:43:05.943Z,6.07
2023-01-20T02:45:41.786Z,6.15
2023-01-20T02:48:22.062Z,7.03
2023-01-20T02:50:57.284Z,6.72
2023-01-20T02:53:26.896Z,6.70
2023-01-20T02:55:56.316Z,6.53
2023-01-20T02:58:32.711Z,6.55
2023-01-20T03:01:04.907Z,6.82
2023-01-20T03:06:10.511Z,6.05
2023-01-20T03:08:40.610Z,6.78
2023-01-20T03:11:10.181Z,6.80
2023-01-20T03:13:42.758Z,6.72
2023-01-20T03:16:13.224Z,7.13
2023-01-20T03:18:42.678Z,6.93
2023-01-20T03:21:11.839Z,7.32
2023-01-20T03:23:43.915Z,6.47
2023-01-20T03:26:16.616Z,8.02
2023-01-20T03:28:45.599Z,11.95
2023-01-20T03:31:18.647Z,10.02
2023-01-20T03:33:49.478Z,13.23
2023-01-20T03:36:18.435Z,15.23
2023-01-20T03:38:47.149Z,19.80
2023-01-20T03:41:25.569Z,17.23
2023-01-20T03:44:00.352Z,16.63
2023-01-20T03:46:36.445Z,15.82
2023-01-20T03:49:13.468Z,13.15
2023-01-20T03:51:49.935Z,12.00
2023-01-20T03:54:23.931Z,10.57
2023-01-20T03:56:57.693Z,9.30
2023-01-20T03:59:26.719Z,8.27
2023-01-20T04:01:55.616Z,7.60
2023-01-20T04:04:24.996Z,7.10
2023-01-20T04:06:53.851Z,7.03
2023-01-20T04:09:25.635Z,7.03
2023-01-20T04:11:53.908Z,7.45
2023-01-20T04:14:21.914Z,7.15
2023-01-20T04:16:55.290Z,6.55
2023-01-20T04:19:25.427Z,6.90
2023-01-20T04:21:59.367Z,7.10
2023-01-20T04:24:32.975Z,6.50
2023-01-20T04:27:00.852Z,6.72
2023-01-20T04:29:28.720Z,6.50
2023-01-20T04:32:00.302Z,7.32
2023-01-20T04:34:30.087Z,6.80
2023-01-20T04:36:57.920Z,6.55
2023-01-20T04:39:25.840Z,6.50
2023-01-20T04:41:53.692Z,5.95
2023-01-20T04:44:21.568Z,6.80
2023-01-20T04:46:49.458Z,7.10
2023-01-20T04:49:17.325Z,6.72
2023-01-20T04:51:46.525Z,6.65
2023-01-20T04:54:14.351Z,6.03
2023-01-20T04:56:43.308Z,6.07
2023-01-20T04:59:11.289Z,5.55
2023-01-20T05:01:40.301Z,6.22
2023-01-20T05:04:08.227Z,5.70
2023-01-20T05:06:36.124Z,5.60
2023-01-20T05:09:05.431Z,5.75
2023-01-20T05:11:33.288Z,6.20
2023-01-20T05:14:01.133Z,5.78
2023-01-20T05:16:32.001Z,5.63
2023-01-20T05:18:59.887Z,5.45
2023-01-20T05:21:28.017Z,6.20
2023-01-20T05:23:56.106Z,5.90
2023-01-20T05:26:25.479Z,5.93
2023-01-20T05:28:53.700Z,5.95
2023-01-20T05:31:21.730Z,5.53
2023-01-20T05:33:49.627Z,5.82
2023-01-20T05:36:17.715Z,6.30
2023-01-20T05:38:45.543Z,6.10
2023-01-20T05:41:13.412Z,6.32
2023-01-20T05:43:42.606Z,6.57
2023-01-20T05:46:10.518Z,5.88
2023-01-20T05:48:38.498Z,5.63
2023-01-20T05:51:06.919Z,6.00
2023-01-20T05:53:34.832Z,6.40
2023-01-20T05:56:03.829Z,6.30
2023-01-20T05:58:32.363Z,6.10
2023-01-20T06:01:07.302Z,5.93
2023-01-20T06:03:35.703Z,6.13
2023-01-20T06:06:04.616Z,6.45
2023-01-20T06:08:32.537Z,6.30
2023-01-20T06:11:00.563Z,6.20
2023-01-20T06:13:28.453Z,7.45
2023-01-20T06:15:57.193Z,6.55
2023-01-20T06:18:26.428Z,5.90
2023-01-20T06:20:57.963Z,7.13
2023-01-20T06:23:26.201Z,6.75
2023-01-20T06:26:00.164Z,6.72
2023-01-20T06:28:28.398Z,7.15
2023-01-20T06:31:03.639Z,7.30
2023-01-20T06:33:33.459Z,7.40
2023-01-20T06:36:02.270Z,7.07
2023-01-20T06:38:31.843Z,6.90
2023-01-20T06:41:00.528Z,7.57
2023-01-20T06:43:30.022Z,6.43
2023-01-20T06:46:01.106Z,7.28
2023-01-20T06:48:29.302Z,7.57
2023-01-20T06:51:02.984Z,7.80
2023-01-20T06:53:30.923Z,8.05
2023-01-20T06:56:00.174Z,7.78
2023-01-20T06:58:30.057Z,7.68
2023-01-20T07:00:58.646Z,8.13
2023-01-20T07:03:26.558Z,8.52
2023-01-20T07:05:58.800Z,8.65
2023-01-20T07:10:55.879Z,8.57
2023-01-20T07:13:23.989Z,8.45
2023-01-20T07:15:51.844Z,8.88
2023-01-20T07:18:19.654Z,9.07
2023-01-20T07:20:47.693Z,9.70
2023-01-20T07:23:15.535Z,9.25
2023-01-20T07:25:44.786Z,9.23
2023-01-20T07:28:12.570Z,8.90
2023-01-20T07:30:40.473Z,9.45
2023-01-20T07:33:08.343Z,9.60
2023-01-20T07:35:36.129Z,8.82
2023-01-20T07:38:04.508Z,10.43
2023-01-20T07:40:32.322Z,9.68
2023-01-20T07:43:04.096Z,9.95
2023-01-20T07:45:32.024Z,9.80
2023-01-20T07:47:59.834Z,8.95
2023-01-20T07:50:27.732Z,8.75
2023-01-20T07:52:55.692Z,8.93
2023-01-20T07:55:25.092Z,8.43
2023-01-20T07:57:53.172Z,8.65
2023-01-20T08:00:23.236Z,7.95
2023-01-20T08:02:51.250Z,8.75
2023-01-20T08:05:19.202Z,8.77
2023-01-20T08:07:51.446Z,9.25
2023-01-20T08:12:47.130Z,8.85
2023-01-20T08:15:15.226Z,8.60
2023-01-20T08:17:44.561Z,8.23
2023-01-20T08:20:13.237Z,8.10
2023-01-20T08:22:41.077Z,8.60
2023-01-20T08:25:09.661Z,8.70
2023-01-20T08:27:37.544Z,8.63
2023-01-20T08:30:06.409Z,8.30
2023-01-20T08:32:34.253Z,8.35
2023-01-20T08:35:03.536Z,9.13
2023-01-20T08:37:31.351Z,8.30
2023-01-20T08:39:59.133Z,8.65
2023-01-20T08:42:27.001Z,8.45
2023-01-20T08:44:54.791Z,9.13
2023-01-20T08:47:23.856Z,15.43
2023-01-20T08:49:54.150Z,9.40
2023-01-20T08:52:23.332Z,9.70
2023-01-20T08:54:52.933Z,10.20
2023-01-20T08:57:20.884Z,9.43
2023-01-20T08:59:50.714Z,8.95
2023-01-20T09:02:18.554Z,8.88
2023-01-20T09:04:46.423Z,9.00
2023-01-20T09:07:14.377Z,8.90
2023-01-20T09:09:44.325Z,8.90
2023-01-20T09:12:12.202Z,8.18
2023-01-20T09:14:40.304Z,8.35
2023-01-20T09:17:08.126Z,8.45
2023-01-20T09:19:35.951Z,8.80
2023-01-20T09:22:04.778Z,8.90
2023-01-20T09:24:32.660Z,8.40
2023-01-20T09:27:01.775Z,8.18
2023-01-20T09:29:29.656Z,7.78
2023-01-20T09:31:58.769Z,7.20
2023-01-20T09:34:29.471Z,8.23
2023-01-20T09:37:19.531Z,8.52
2023-01-20T09:40:05.361Z,8.10
2023-01-20T09:43:04.915Z,8.82
2023-01-20T09:45:38.611Z,7.95
2023-01-20T09:48:28.039Z,8.52
2023-01-20T09:51:21.070Z,8.00
2023-01-20T09:53:57.340Z,7.40
2023-01-20T09:56:28.719Z,7.35
2023-01-20T09:59:03.032Z,6.27
2023-01-20T10:01:36.745Z,7.05
2023-01-20T10:04:10.621Z,6.75
2023-01-20T10:06:42.402Z,7.20
2023-01-20T10:09:17.913Z,6.47
2023-01-20T10:11:48.166Z,6.10
2023-01-20T10:14:22.817Z,6.10
2023-01-20T10:16:56.724Z,5.28
2023-01-20T10:19:32.637Z,5.68
2023-01-20T10:22:09.565Z,5.85
2023-01-20T10:24:41.402Z,5.65
2023-01-20T10:27:09.161Z,5.72
2023-01-20T10:29:40.443Z,5.63
2023-01-20T10:32:15.142Z,5.25
2023-01-20T10:34:46.626Z,5.60
2023-01-20T10:37:15.901Z,5.47
2023-01-20T10:39:48.890Z,5.65
2023-01-20T10:42:18.069Z,5.32
2023-01-20T10:44:49.938Z,5.57
2023-01-20T10:47:24.763Z,6.10
2023-01-20T10:50:29.249Z,4.93
2023-01-20T10:53:11.811Z,5.60
2023-01-20T10:55:56.527Z,4.82
2023-01-20T10:58:27.637Z,5.57
2023-01-20T11:00:59.145Z,5.30
2023-01-20T11:03:27.097Z,5.20
2023-01-20T11:05:54.983Z,5.15
2023-01-20T11:08:24.816Z,4.97
2023-01-20T11:10:56.222Z,4.97
2023-01-20T11:13:24.107Z,5.03
2023-01-20T11:15:56.326Z,5.55
2023-01-20T11:20:59.316Z,5.30
2023-01-20T11:23:35.810Z,5.37
2023-01-20T11:26:10.079Z,5.72
2023-01-20T11:28:51.626Z,5.60
2023-01-20T11:31:20.319Z,4.43
2023-01-20T11:34:00.735Z,5.50
2023-01-20T11:36:29.255Z,5.68
2023-01-20T11:38:58.624Z,5.57
2023-01-20T11:41:28.545Z,5.75
2023-01-20T11:43:57.995Z,6.13
2023-01-20T11:46:29.782Z,6.32
2023-01-20T11:49:17.415Z,5.80
2023-01-20T11:51:51.424Z,5.82
2023-01-20T11:54:21.888Z,6.10
2023-01-20T11:56:54.447Z,5.57
2023-01-20T11:59:30.223Z,6.03
2023-01-20T12:02:01.835Z,5.57
2023-01-20T12:05:15.465Z,6.65
2023-01-20T12:07:46.957Z,6.50
2023-01-20T12:10:18.686Z,6.25
2023-01-20T12:12:51.836Z,6.32
2023-01-20T12:15:22.820Z,6.40
2023-01-20T12:17:57.862Z,6.13
2023-01-20T12:20:45.662Z,6.93
2023-01-20T12:23:22.078Z,6.60
2023-01-20T12:25:55.643Z,5.95
2023-01-20T12:28:28.133Z,6.57
2023-01-20T12:31:01.025Z,7.60
2023-01-20T12:33:31.505Z,7.10
2023-01-20T12:36:38.707Z,6.68
2023-01-20T12:39:36.362Z,6.75
2023-01-20T12:42:34.084Z,6.68
2023-01-20T12:45:11.209Z,6.70
2023-01-20T12:47:53.209Z,7.40
2023-01-20T12:50:31.049Z,7.82
2023-01-20T12:53:16.830Z,7.10
2023-01-20T12:55:55.813Z,7.22
2023-01-20T12:58:36.989Z,7.68
2023-01-20T13:01:27.435Z,7.93
2023-01-20T13:04:36.499Z,7.95
2023-01-20T13:07:21.992Z,7.60
2023-01-20T13:10:03.995Z,7.43
2023-01-20T13:12:44.700Z,8.02
2023-01-20T13:15:22.131Z,8.13
2023-01-20T13:18:08.474Z,8.32
2023-01-20T13:20:40.562Z,9.35
2023-01-20T13:23:11.826Z,9.40
2023-01-20T13:25:42.180Z,9.68
2023-01-20T13:28:19.050Z,9.32
2023-01-20T13:30:51.209Z,10.13
2023-01-20T13:35:55.668Z,9.20
2023-01-20T13:38:25.358Z,10.40
2023-01-20T13:40:56.792Z,10.40
2023-01-20T13:43:36.617Z,9.65
2023-01-20T13:46:38.276Z,10.52
2023-01-20T13:49:24.029Z,10.70
2023-01-20T13:51:51.862Z,11.10
2023-01-20T13:54:49.636Z,11.45
2023-01-20T13:57:37.664Z,11.57
2023-01-20T14:00:16.041Z,11.05
2023-01-20T14:02:44.071Z,12.18
2023-01-20T14:05:32.801Z,11.30
2023-01-20T14:08:01.141Z,12.10
2023-01-20T14:10:29.427Z,11.43
2023-01-20T14:12:58.536Z,12.43
2023-01-20T14:15:34.020Z,11.90
2023-01-20T14:18:02.723Z,12.13
2023-01-20T14:20:31.355Z,11.90
2023-01-20T14:23:26.111Z,12.05
2023-01-20T14:26:03.131Z,11.98
2023-01-20T14:28:33.014Z,11.90
2023-01-20T14:31:22.567Z,13.40
2023-01-20T14:33:55.955Z,13.07
2023-01-20T14:36:25.760Z,12.63
2023-01-20T14:38:58.624Z,13.95
2023-01-20T14:41:29.635Z,14.13
2023-01-20T14:44:02.860Z,13.13
2023-01-20T14:46:41.366Z,13.05
2023-01-20T14:49:13.338Z,13.02
2023-01-20T14:51:41.344Z,13.82
2023-01-20T14:54:28.404Z,12.93
2023-01-20T14:56:56.517Z,13.63
2023-01-20T14:59:26.485Z,13.38
2023-01-20T15:01:56.344Z,13.55
2023-01-20T15:04:24.457Z,14.60
2023-01-20T15:06:54.239Z,14.18
2023-01-20T15:09:28.559Z,14.38
2023-01-20T15:12:33.792Z,14.23
2023-01-20T15:15:25.845Z,13.93
2023-01-20T15:18:19.942Z,13.32
2023-01-20T15:20:51.069Z,12.75
2023-01-20T15:23:22.600Z,14.85
2023-01-20T15:25:51.495Z,13.50
2023-01-20T15:28:25.660Z,13.32
2023-01-20T15:30:56.618Z,13.70
2023-01-20T15:33:25.106Z,13.20
2023-01-20T15:35:55.512Z,12.98
2023-01-20T15:38:23.433Z,14.35
2023-01-20T15:40:51.273Z,13.70
2023-01-20T15:43:20.140Z,16.30
2023-01-20T15:45:48.352Z,14.25
2023-01-20T15:48:18.803Z,14.32
2023-01-20T15:50:47.270Z,13.65
2023-01-20T15:53:15.866Z,14.20
2023-01-20T15:55:49.563Z,14.27
2023-01-20T15:58:28.627Z,14.63
2023-01-20T16:00:58.500Z,14.65
2023-01-20T16:03:28.468Z,14.23
2023-01-20T16:05:57.330Z,14.18
2023-01-20T16:08:32.902Z,12.95
2023-01-20T16:11:00.698Z,13.43
2023-01-20T16:13:28.504Z,14.38
2023-01-20T16:15:56.973Z,14.50
2023-01-20T16:18:24.805Z,13.35
2023-01-20T16:20:54.008Z,15.20
2023-01-20T16:23:21.819Z,13.55
2023-01-20T16:25:49.973Z,14.57
2023-01-20T16:28:21.270Z,13.75
2023-01-20T16:30:49.625Z,13.13
2023-01-20T16:33:20.065Z,14.00
2023-01-20T16:35:48.193Z,12.45
2023-01-20T16:38:19.514Z,13.40
2023-01-20T16:40:50.792Z,13.60
2023-01-20T16:43:19.174Z,9.52
2023-01-20T16:45:52.622Z,13.38
2023-01-20T16:48:20.905Z,14.20
2023-01-20T16:50:48.875Z,13.90
2023-01-20T16:53:19.089Z,14.07
2023-01-20T16:55:47.599Z,13.25
2023-01-20T16:58:16.097Z,14.27
2023-01-20T17:00:44.300Z,13.30
2023-01-20T17:03:12.096Z,15.18
2023-01-20T17:05:39.935Z,14.02
2023-01-20T17:08:07.847Z,13.52
2023-01-20T17:10:37.027Z,14.95
2023-01-20T17:13:04.800Z,15.48
2023-01-20T17:15:32.638Z,15.27
2023-01-20T17:18:00.440Z,16.35
2023-01-20T17:20:30.853Z,15.57
2023-01-20T17:22:58.607Z,13.85
2023-01-20T17:25:26.634Z,15.43
2023-01-20T17:27:55.769Z,15.25
2023-01-20T17:30:26.181Z,15.65
2023-01-20T17:32:54.239Z,15.00
2023-01-20T17:35:22.335Z,14.55
2023-01-20T17:37:50.130Z,15.90
2023-01-20T17:40:18.672Z,15.10
2023-01-20T17:42:46.799Z,14.90
2023-01-20T17:45:16.093Z,16.10
2023-01-20T17:47:43.870Z,14.90
2023-01-20T17:50:12.232Z,15.23
2023-01-20T17:52:40.343Z,15.88
2023-01-20T17:55:08.988Z,14.30
2023-01-20T17:57:36.792Z,15.50
2023-01-20T18:00:06.352Z,14.18
2023-01-20T18:02:35.494Z,14.70
2023-01-20T18:05:03.374Z,14.90
2023-01-20T18:07:31.161Z,14.85
2023-01-20T18:09:59.067Z,14.48
2023-01-20T18:12:27.198Z,15.70
2023-01-20T18:14:55.235Z,15.45
2023-01-20T18:17:23.022Z,14.95
2023-01-20T18:19:52.181Z,14.45
2023-01-20T18:22:19.973Z,14.73
2023-01-20T18:24:47.716Z,14.25
2023-01-20T18:27:15.503Z,14.63
2023-01-20T18:29:43.322Z,14.52
2023-01-20T18:32:11.115Z,14.50
2023-01-20T18:34:38.877Z,14.05
2023-01-20T18:37:07.977Z,13.02
2023-01-20T18:39:36.709Z,13.07
2023-01-20T18:42:04.681Z,13.45
2023-01-20T18:44:32.459Z,12.40
2023-01-20T18:47:00.248Z,11.55
2023-01-20T18:49:28.035Z,12.35
2023-01-20T18:51:55.859Z,12.23
2023-01-20T18:54:26.227Z,12.57
2023-01-20T18:56:54.106Z,12.07
2023-01-20T18:59:22.071Z,12.68
2023-01-20T19:01:50.832Z,11.13
2023-01-20T19:04:18.628Z,11.50
2023-01-20T19:06:46.554Z,11.43
2023-01-20T19:09:15.998Z,12.25
2023-01-20T19:11:45.179Z,12.10
2023-01-20T19:14:15.076Z,13.05
2023-01-20T19:16:45.429Z,12.95
2023-01-20T19:19:14.522Z,12.07
2023-01-20T19:21:42.765Z,12.23
2023-01-20T19:24:15.049Z,13.05
2023-01-20T19:29:15.683Z,11.60
2023-01-20T19:31:43.576Z,11.30
2023-01-20T19:34:11.493Z,12.65
2023-01-20T19:36:39.357Z,13.70
2023-01-20T19:39:07.347Z,11.95
2023-01-20T19:41:36.125Z,13.27
2023-01-20T19:44:06.858Z,12.80
2023-01-20T19:46:38.721Z,12.82
2023-01-20T19:49:06.766Z,13.30
2023-01-20T19:51:36.299Z,13.48
2023-01-20T19:54:05.084Z,14.02
2023-01-20T19:56:34.558Z,13.68
2023-01-20T19:59:02.703Z,13.57
2023-01-20T20:01:32.181Z,14.32
2023-01-20T20:04:06.308Z,13.93
2023-01-20T20:06:35.233Z,13.98
2023-01-20T20:09:05.317Z,14.32
2023-01-20T20:11:34.406Z,15.20
2023-01-20T20:14:04.483Z,14.48
2023-01-20T20:16:35.092Z,14.43
2023-01-20T20:19:05.242Z,15.20
2023-01-20T20:21:33.100Z,15.32
2023-01-20T20:24:02.286Z,14.80
2023-01-20T20:26:32.409Z,14.00
2023-01-20T20:29:01.981Z,13.40
2023-01-20T20:31:30.400Z,13.27
2023-01-20T20:33:59.276Z,14.77
2023-01-20T20:36:30.863Z,13.52
2023-01-20T20:38:59.432Z,14.80
2023-01-20T20:41:29.282Z,14.00
2023-01-20T20:43:57.880Z,13.80
2023-01-20T20:46:26.277Z,15.43
2023-01-20T20:48:55.369Z,14.43
2023-01-20T20:51:24.128Z,13.73
2023-01-20T20:53:55.056Z,13.35
2023-01-20T20:56:24.439Z,13.75
2023-01-20T20:59:01.539Z,13.15
2023-01-20T21:01:31.230Z,13.88
2023-01-20T21:04:00.497Z,15.30
2023-01-20T21:06:28.774Z,14.45
2023-01-20T21:08:58.618Z,14.23
2023-01-20T21:11:26.530Z,15.32
2023-01-20T21:13:54.513Z,15.57
2023-01-20T21:16:23.245Z,14.48
2023-01-20T21:18:52.298Z,15.48
2023-01-20T21:21:20.919Z,13.98
2023-01-20T21:23:50.327Z,14.27
2023-01-20T21:26:19.922Z,14.80
2023-01-20T21:28:49.179Z,13.27
2023-01-20T21:31:19.055Z,13.63
2023-01-20T21:33:49.061Z,14.50
2023-01-20T21:36:16.895Z,13.70
2023-01-20T21:38:46.431Z,13.85
2023-01-20T21:41:16.257Z,13.60
2023-01-20T21:44:04.410Z,13.50
2023-01-20T21:46:36.505Z,13.05
2023-01-20T21:49:23.546Z,13.70
2023-01-20T21:52:08.945Z,13.85
2023-01-20T21:54:38.928Z,13.45
2023-01-20T21:57:06.774Z,15.13
2023-01-20T21:59:35.919Z,14.27
2023-01-20T22:02:15.830Z,14.00
2023-01-20T22:04:46.058Z,15.68
2023-01-20T22:07:14.281Z,14.48
2023-01-20T22:09:42.509Z,13.43
2023-01-20T22:12:13.886Z,12.32
2023-01-20T22:14:43.345Z,13.52
2023-01-20T22:17:12.760Z,14.48
2023-01-20T22:19:40.716Z,13.73
2023-01-20T22:22:08.949Z,13.57
2023-01-20T22:24:36.758Z,12.80
2023-01-20T22:27:04.687Z,13.65
2023-01-20T22:29:33.458Z,14.02
2023-01-20T22:32:04.083Z,13.40
2023-01-20T22:34:31.976Z,13.15
2023-01-20T22:37:00.672Z,12.63
2023-01-20T22:39:28.973Z,12.85
2023-01-20T22:41:56.847Z,14.45
2023-01-20T22:44:24.691Z,12.50
2023-01-20T22:46:52.531Z,13.80
2023-01-20T22:49:21.732Z,13.23
2023-01-20T22:51:49.691Z,13.55
2023-01-20T22:54:17.548Z,12.95
2023-01-20T22:56:45.347Z,13.20
2023-01-20T22:59:14.492Z,12.35
2023-01-20T23:01:42.444Z,12.38
2023-01-20T23:04:11.208Z,13.38
2023-01-20T23:06:40.325Z,12.60
2023-01-20T23:09:10.126Z,12.75
2023-01-20T23:11:39.846Z,12.90
2023-01-20T23:14:10.469Z,12.27
2023-01-20T23:16:38.556Z,13.10
2023-01-20T23:19:06.872Z,12.57
2023-01-20T23:21:34.748Z,13.80
2023-01-20T23:24:03.992Z,12.80
2023-01-20T23:26:32.942Z,13.07
2023-01-20T23:29:00.978Z,13.75
2023-01-20T23:31:33.137Z,13.60
2023-01-20T23:34:02.096Z,13.43
2023-01-20T23:36:30.067Z,12.77
2023-01-20T23:38:57.968Z,13.02
2023-01-20T23:41:27.278Z,12.77
2023-01-20T23:43:55.128Z,14.05
2023-01-20T23:46:22.988Z,13.23
2023-01-20T23:48:50.811Z,13.10
2023-01-20T23:51:18.806Z,12.15
2023-01-20T23:53:46.705Z,12.90
2023-01-20T23:56:16.380Z,13.38
2023-01-20T23:58:45.968Z,12.57
